sensor_id;sensor_type;location;lat;lon;timestamp;P1;durP1;ratioP1;P2;durP2;ratioP2
34984;SDS011;21190;58.750;17.004;2023-07-24T00:00:31;10.85;;;2.10;;
34984;SDS011;21190;58.750;17.004;2023-07-24T00:03:00;6.53;;;2.38;;
34984;SDS011;21190;58.750;17.004;2023-07-24T00:05:28;7.15;;;2.20;;
34984;SDS011;21190;58.750;17.004;2023-07-24T00:07:55;5.90;;;2.30;;
34984;SDS011;21190;58.750;17.004;2023-07-24T00:10:22;3.90;;;2.20;;
34984;SDS011;21190;58.750;17.004;2023-07-24T00:12:49;5.10;;;2.13;;
34984;SDS011;21190;58.750;17.004;2023-07-24T00:15:16;5.75;;;1.88;;
34984;SDS011;21190;58.750;17.004;2023-07-24T00:17:44;3.90;;;2.05;;
34984;SDS011;21190;58.750;17.004;2023-07-24T00:20:11;4.22;;;1.90;;
34984;SDS011;21190;58.750;17.004;2023-07-24T00:22:38;4.40;;;1.67;;
34984;SDS011;21190;58.750;17.004;2023-07-24T00:25:05;5.95;;;1.75;;
34984;SDS011;21190;58.750;17.004;2023-07-24T00:27:32;4.47;;;1.63;;
34984;SDS011;21190;58.750;17.004;2023-07-24T00:29:59;2.47;;;1.48;;
34984;SDS011;21190;58.750;17.004;2023-07-24T00:32:26;2.45;;;1.52;;
34984;SDS011;21190;58.750;17.004;2023-07-24T00:34:53;6.97;;;2.10;;
34984;SDS011;21190;58.750;17.004;2023-07-24T00:37:20;3.25;;;1.60;;
34984;SDS011;21190;58.750;17.004;2023-07-24T00:39:47;3.33;;;1.77;;
34984;SDS011;21190;58.750;17.004;2023-07-24T00:42:14;4.97;;;2.13;;
34984;SDS011;21190;58.750;17.004;2023-07-24T00:44:41;3.60;;;1.75;;
34984;SDS011;21190;58.750;17.004;2023-07-24T00:47:08;9.40;;;2.10;;
34984;SDS011;21190;58.750;17.004;2023-07-24T00:49:35;4.95;;;2.22;;
34984;SDS011;21190;58.750;17.004;2023-07-24T00:52:02;3.70;;;2.08;;
34984;SDS011;21190;58.750;17.004;2023-07-24T00:54:29;5.28;;;1.65;;
34984;SDS011;21190;58.750;17.004;2023-07-24T00:56:59;2.72;;;1.85;;
34984;SDS011;21190;58.750;17.004;2023-07-24T00:59:27;5.22;;;1.85;;
34984;SDS011;21190;58.750;17.004;2023-07-24T01:01:54;1.77;;;1.20;;
34984;SDS011;21190;58.750;17.004;2023-07-24T01:04:21;4.28;;;1.15;;
34984;SDS011;21190;58.750;17.004;2023-07-24T01:06:49;3.95;;;1.45;;
34984;SDS011;21190;58.750;17.004;2023-07-24T01:09:15;4.30;;;1.30;;
34984;SDS011;21190;58.750;17.004;2023-07-24T01:11:46;2.05;;;1.15;;
34984;SDS011;21190;58.750;17.004;2023-07-24T01:14:22;2.15;;;1.35;;
34984;SDS011;21190;58.750;17.004;2023-07-24T01:17:02;1.60;;;1.10;;
34984;SDS011;21190;58.750;17.004;2023-07-24T01:22:10;1.73;;;1.23;;
34984;SDS011;21190;58.750;17.004;2023-07-24T01:25:10;1.90;;;1.25;;
34984;SDS011;21190;58.750;17.004;2023-07-24T01:27:57;2.28;;;0.85;;
34984;SDS011;21190;58.750;17.004;2023-07-24T01:30:24;1.42;;;1.13;;
34984;SDS011;21190;58.750;17.004;2023-07-24T01:32:51;1.55;;;1.10;;
34984;SDS011;21190;58.750;17.004;2023-07-24T01:35:18;1.23;;;1.10;;
34984;SDS011;21190;58.750;17.004;2023-07-24T01:37:46;3.10;;;0.90;;
34984;SDS011;21190;58.750;17.004;2023-07-24T01:40:13;2.63;;;1.08;;
34984;SDS011;21190;58.750;17.004;2023-07-24T01:42:41;2.38;;;1.30;;
34984;SDS011;21190;58.750;17.004;2023-07-24T01:45:08;1.95;;;1.13;;
34984;SDS011;21190;58.750;17.004;2023-07-24T01:47:37;2.35;;;1.48;;
34984;SDS011;21190;58.750;17.004;2023-07-24T01:50:05;2.88;;;1.30;;
34984;SDS011;21190;58.750;17.004;2023-07-24T01:52:32;2.08;;;1.33;;
34984;SDS011;21190;58.750;17.004;2023-07-24T01:54:59;1.73;;;1.40;;
34984;SDS011;21190;58.750;17.004;2023-07-24T01:57:26;2.13;;;1.33;;
34984;SDS011;21190;58.750;17.004;2023-07-24T01:59:53;1.70;;;1.08;;
34984;SDS011;21190;58.750;17.004;2023-07-24T02:02:20;1.83;;;1.30;;
34984;SDS011;21190;58.750;17.004;2023-07-24T02:04:47;3.15;;;1.60;;
34984;SDS011;21190;58.750;17.004;2023-07-24T02:07:14;3.30;;;1.58;;
34984;SDS011;21190;58.750;17.004;2023-07-24T02:09:41;7.93;;;1.90;;
34984;SDS011;21190;58.750;17.004;2023-07-24T02:12:08;7.25;;;2.55;;
34984;SDS011;21190;58.750;17.004;2023-07-24T02:14:35;4.55;;;2.30;;
34984;SDS011;21190;58.750;17.004;2023-07-24T02:17:02;5.00;;;2.30;;
34984;SDS011;21190;58.750;17.004;2023-07-24T02:19:29;5.47;;;2.33;;
34984;SDS011;21190;58.750;17.004;2023-07-24T02:21:56;4.80;;;2.15;;
34984;SDS011;21190;58.750;17.004;2023-07-24T02:24:23;5.38;;;2.22;;
34984;SDS011;21190;58.750;17.004;2023-07-24T02:26:50;7.55;;;2.63;;
34984;SDS011;21190;58.750;17.004;2023-07-24T02:29:17;3.72;;;1.73;;
34984;SDS011;21190;58.750;17.004;2023-07-24T02:31:45;4.03;;;1.60;;
34984;SDS011;21190;58.750;17.004;2023-07-24T02:34:12;4.80;;;1.63;;
34984;SDS011;21190;58.750;17.004;2023-07-24T02:36:39;5.90;;;1.60;;
34984;SDS011;21190;58.750;17.004;2023-07-24T02:39:07;2.70;;;1.70;;
34984;SDS011;21190;58.750;17.004;2023-07-24T02:41:34;3.20;;;1.92;;
34984;SDS011;21190;58.750;17.004;2023-07-24T02:44:02;4.35;;;1.85;;
34984;SDS011;21190;58.750;17.004;2023-07-24T02:46:30;5.00;;;1.80;;
34984;SDS011;21190;58.750;17.004;2023-07-24T02:48:57;3.58;;;1.90;;
34984;SDS011;21190;58.750;17.004;2023-07-24T02:51:25;2.75;;;1.88;;
34984;SDS011;21190;58.750;17.004;2023-07-24T02:53:53;4.50;;;2.22;;
34984;SDS011;21190;58.750;17.004;2023-07-24T02:56:21;6.40;;;2.33;;
34984;SDS011;21190;58.750;17.004;2023-07-24T02:58:48;3.20;;;1.95;;
34984;SDS011;21190;58.750;17.004;2023-07-24T03:01:15;3.60;;;1.70;;
34984;SDS011;21190;58.750;17.004;2023-07-24T03:03:42;3.08;;;2.00;;
34984;SDS011;21190;58.750;17.004;2023-07-24T03:06:09;3.03;;;1.67;;
34984;SDS011;21190;58.750;17.004;2023-07-24T03:08:36;2.60;;;1.58;;
34984;SDS011;21190;58.750;17.004;2023-07-24T03:11:07;4.32;;;2.95;;
34984;SDS011;21190;58.750;17.004;2023-07-24T03:13:33;8.40;;;3.38;;
34984;SDS011;21190;58.750;17.004;2023-07-24T03:16:00;5.70;;;2.55;;
34984;SDS011;21190;58.750;17.004;2023-07-24T03:18:28;8.40;;;2.53;;
34984;SDS011;21190;58.750;17.004;2023-07-24T03:20:56;6.80;;;3.30;;
34984;SDS011;21190;58.750;17.004;2023-07-24T03:23:25;6.07;;;2.92;;
34984;SDS011;21190;58.750;17.004;2023-07-24T03:25:52;7.93;;;3.33;;
34984;SDS011;21190;58.750;17.004;2023-07-24T03:28:19;5.63;;;3.13;;
34984;SDS011;21190;58.750;17.004;2023-07-24T03:30:46;7.57;;;3.45;;
34984;SDS011;21190;58.750;17.004;2023-07-24T03:33:13;6.28;;;3.15;;
34984;SDS011;21190;58.750;17.004;2023-07-24T03:35:40;7.45;;;3.05;;
34984;SDS011;21190;58.750;17.004;2023-07-24T03:38:07;8.23;;;3.30;;
34984;SDS011;21190;58.750;17.004;2023-07-24T03:40:34;8.07;;;3.33;;
34984;SDS011;21190;58.750;17.004;2023-07-24T03:43:01;9.80;;;4.07;;
34984;SDS011;21190;58.750;17.004;2023-07-24T03:45:28;9.18;;;3.90;;
34984;SDS011;21190;58.750;17.004;2023-07-24T03:47:55;5.95;;;3.40;;
34984;SDS011;21190;58.750;17.004;2023-07-24T03:50:22;6.43;;;3.17;;
34984;SDS011;21190;58.750;17.004;2023-07-24T03:52:49;7.65;;;3.60;;
34984;SDS011;21190;58.750;17.004;2023-07-24T03:55:16;8.20;;;3.90;;
34984;SDS011;21190;58.750;17.004;2023-07-24T03:57:43;6.63;;;3.45;;
34984;SDS011;21190;58.750;17.004;2023-07-24T04:00:10;6.97;;;3.72;;
34984;SDS011;21190;58.750;17.004;2023-07-24T04:02:37;5.40;;;2.97;;
34984;SDS011;21190;58.750;17.004;2023-07-24T04:05:06;6.32;;;3.40;;
34984;SDS011;21190;58.750;17.004;2023-07-24T04:07:33;5.05;;;3.50;;
34984;SDS011;21190;58.750;17.004;2023-07-24T04:10:00;4.35;;;2.67;;
34984;SDS011;21190;58.750;17.004;2023-07-24T04:12:28;6.10;;;3.05;;
34984;SDS011;21190;58.750;17.004;2023-07-24T04:14:55;6.95;;;3.42;;
34984;SDS011;21190;58.750;17.004;2023-07-24T04:17:22;5.43;;;2.78;;
34984;SDS011;21190;58.750;17.004;2023-07-24T04:19:49;7.45;;;2.85;;
34984;SDS011;21190;58.750;17.004;2023-07-24T04:22:16;7.03;;;3.10;;
34984;SDS011;21190;58.750;17.004;2023-07-24T04:24:43;4.93;;;3.20;;
34984;SDS011;21190;58.750;17.004;2023-07-24T04:27:10;9.27;;;3.50;;
34984;SDS011;21190;58.750;17.004;2023-07-24T04:29:37;7.95;;;3.50;;
34984;SDS011;21190;58.750;17.004;2023-07-24T04:32:04;10.80;;;3.58;;
34984;SDS011;21190;58.750;17.004;2023-07-24T04:34:31;5.97;;;3.50;;
34984;SDS011;21190;58.750;17.004;2023-07-24T04:36:59;7.28;;;3.30;;
34984;SDS011;21190;58.750;17.004;2023-07-24T04:39:26;6.25;;;3.17;;
34984;SDS011;21190;58.750;17.004;2023-07-24T04:41:53;9.02;;;3.28;;
34984;SDS011;21190;58.750;17.004;2023-07-24T04:44:20;8.43;;;3.55;;
34984;SDS011;21190;58.750;17.004;2023-07-24T04:46:47;7.50;;;3.20;;
34984;SDS011;21190;58.750;17.004;2023-07-24T04:49:14;12.55;;;3.35;;
34984;SDS011;21190;58.750;17.004;2023-07-24T04:51:41;7.22;;;3.78;;
34984;SDS011;21190;58.750;17.004;2023-07-24T04:54:08;6.10;;;3.53;;
34984;SDS011;21190;58.750;17.004;2023-07-24T04:56:35;7.30;;;2.75;;
34984;SDS011;21190;58.750;17.004;2023-07-24T04:59:02;6.85;;;3.05;;
34984;SDS011;21190;58.750;17.004;2023-07-24T05:01:29;7.10;;;3.70;;
34984;SDS011;21190;58.750;17.004;2023-07-24T05:03:56;10.93;;;3.75;;
34984;SDS011;21190;58.750;17.004;2023-07-24T05:06:23;7.72;;;3.05;;
34984;SDS011;21190;58.750;17.004;2023-07-24T05:08:51;7.28;;;3.28;;
34984;SDS011;21190;58.750;17.004;2023-07-24T05:11:19;6.95;;;3.35;;
34984;SDS011;21190;58.750;17.004;2023-07-24T05:13:46;8.90;;;3.30;;
34984;SDS011;21190;58.750;17.004;2023-07-24T05:16:13;9.95;;;3.33;;
34984;SDS011;21190;58.750;17.004;2023-07-24T05:18:40;8.52;;;3.30;;
34984;SDS011;21190;58.750;17.004;2023-07-24T05:21:06;6.85;;;3.10;;
34984;SDS011;21190;58.750;17.004;2023-07-24T05:23:33;6.82;;;3.63;;
34984;SDS011;21190;58.750;17.004;2023-07-24T05:26:01;6.28;;;3.15;;
34984;SDS011;21190;58.750;17.004;2023-07-24T05:28:29;8.85;;;2.92;;
34984;SDS011;21190;58.750;17.004;2023-07-24T05:31:03;5.43;;;2.95;;
34984;SDS011;21190;58.750;17.004;2023-07-24T05:33:31;5.57;;;2.90;;
34984;SDS011;21190;58.750;17.004;2023-07-24T05:35:59;5.13;;;3.10;;
34984;SDS011;21190;58.750;17.004;2023-07-24T05:38:29;4.95;;;2.65;;
34984;SDS011;21190;58.750;17.004;2023-07-24T05:40:57;6.28;;;2.83;;
34984;SDS011;21190;58.750;17.004;2023-07-24T05:43:26;6.75;;;2.75;;
34984;SDS011;21190;58.750;17.004;2023-07-24T05:45:54;7.47;;;2.78;;
34984;SDS011;21190;58.750;17.004;2023-07-24T05:48:22;6.18;;;2.80;;
34984;SDS011;21190;58.750;17.004;2023-07-24T05:50:50;5.80;;;2.50;;
34984;SDS011;21190;58.750;17.004;2023-07-24T05:53:17;5.55;;;2.83;;
34984;SDS011;21190;58.750;17.004;2023-07-24T05:55:44;3.35;;;2.20;;
34984;SDS011;21190;58.750;17.004;2023-07-24T05:58:11;4.95;;;2.20;;
34984;SDS011;21190;58.750;17.004;2023-07-24T06:00:38;2.72;;;2.08;;
34984;SDS011;21190;58.750;17.004;2023-07-24T06:03:05;5.18;;;2.10;;
34984;SDS011;21190;58.750;17.004;2023-07-24T06:05:34;3.45;;;2.00;;
34984;SDS011;21190;58.750;17.004;2023-07-24T06:08:01;4.25;;;2.40;;
34984;SDS011;21190;58.750;17.004;2023-07-24T06:10:28;3.58;;;1.80;;
34984;SDS011;21190;58.750;17.004;2023-07-24T06:12:55;2.88;;;2.17;;
34984;SDS011;21190;58.750;17.004;2023-07-24T06:15:22;5.13;;;2.10;;
34984;SDS011;21190;58.750;17.004;2023-07-24T06:17:49;3.10;;;2.22;;
34984;SDS011;21190;58.750;17.004;2023-07-24T06:20:19;3.83;;;2.40;;
34984;SDS011;21190;58.750;17.004;2023-07-24T06:22:47;4.78;;;2.13;;
34984;SDS011;21190;58.750;17.004;2023-07-24T06:25:13;4.65;;;2.60;;
34984;SDS011;21190;58.750;17.004;2023-07-24T06:27:40;4.72;;;2.05;;
34984;SDS011;21190;58.750;17.004;2023-07-24T06:30:07;3.75;;;2.00;;
34984;SDS011;21190;58.750;17.004;2023-07-24T06:32:41;4.18;;;2.40;;
34984;SDS011;21190;58.750;17.004;2023-07-24T06:35:09;4.15;;;2.60;;
34984;SDS011;21190;58.750;17.004;2023-07-24T06:37:36;3.90;;;2.28;;
34984;SDS011;21190;58.750;17.004;2023-07-24T06:40:03;5.03;;;2.20;;
34984;SDS011;21190;58.750;17.004;2023-07-24T06:42:30;4.38;;;2.30;;
34984;SDS011;21190;58.750;17.004;2023-07-24T06:44:57;3.40;;;2.25;;
34984;SDS011;21190;58.750;17.004;2023-07-24T06:47:24;4.50;;;2.50;;
34984;SDS011;21190;58.750;17.004;2023-07-24T06:49:52;5.60;;;3.63;;
34984;SDS011;21190;58.750;17.004;2023-07-24T06:52:18;4.68;;;2.50;;
34984;SDS011;21190;58.750;17.004;2023-07-24T06:54:46;7.80;;;3.15;;
34984;SDS011;21190;58.750;17.004;2023-07-24T06:57:13;6.72;;;2.72;;
34984;SDS011;21190;58.750;17.004;2023-07-24T06:59:40;6.72;;;2.40;;
34984;SDS011;21190;58.750;17.004;2023-07-24T07:02:07;3.03;;;2.53;;
34984;SDS011;21190;58.750;17.004;2023-07-24T07:04:33;4.97;;;3.00;;
34984;SDS011;21190;58.750;17.004;2023-07-24T07:07:00;4.88;;;2.65;;
34984;SDS011;21190;58.750;17.004;2023-07-24T07:09:27;5.47;;;3.22;;
34984;SDS011;21190;58.750;17.004;2023-07-24T07:11:54;5.45;;;3.00;;
34984;SDS011;21190;58.750;17.004;2023-07-24T07:14:21;3.53;;;2.70;;
34984;SDS011;21190;58.750;17.004;2023-07-24T07:16:48;4.00;;;2.67;;
34984;SDS011;21190;58.750;17.004;2023-07-24T07:19:15;4.80;;;2.20;;
34984;SDS011;21190;58.750;17.004;2023-07-24T07:21:42;4.75;;;2.42;;
34984;SDS011;21190;58.750;17.004;2023-07-24T07:24:09;4.97;;;3.15;;
34984;SDS011;21190;58.750;17.004;2023-07-24T07:26:36;4.35;;;2.42;;
34984;SDS011;21190;58.750;17.004;2023-07-24T07:29:03;4.43;;;2.97;;
34984;SDS011;21190;58.750;17.004;2023-07-24T07:31:30;6.60;;;2.97;;
34984;SDS011;21190;58.750;17.004;2023-07-24T07:33:57;6.80;;;3.92;;
34984;SDS011;21190;58.750;17.004;2023-07-24T07:36:24;6.65;;;3.45;;
34984;SDS011;21190;58.750;17.004;2023-07-24T07:38:51;7.85;;;4.10;;
34984;SDS011;21190;58.750;17.004;2023-07-24T07:41:18;6.50;;;3.80;;
34984;SDS011;21190;58.750;17.004;2023-07-24T07:43:45;6.85;;;3.40;;
34984;SDS011;21190;58.750;17.004;2023-07-24T07:46:11;7.53;;;3.33;;
34984;SDS011;21190;58.750;17.004;2023-07-24T07:48:38;4.45;;;3.05;;
34984;SDS011;21190;58.750;17.004;2023-07-24T07:51:06;5.72;;;3.25;;
34984;SDS011;21190;58.750;17.004;2023-07-24T07:53:33;7.38;;;3.67;;
34984;SDS011;21190;58.750;17.004;2023-07-24T07:56:00;9.15;;;5.30;;
34984;SDS011;21190;58.750;17.004;2023-07-24T07:58:27;10.50;;;5.38;;
34984;SDS011;21190;58.750;17.004;2023-07-24T08:00:54;7.70;;;3.60;;
34984;SDS011;21190;58.750;17.004;2023-07-24T08:03:21;7.07;;;3.55;;
34984;SDS011;21190;58.750;17.004;2023-07-24T08:05:48;5.55;;;3.58;;
34984;SDS011;21190;58.750;17.004;2023-07-24T08:08:15;6.40;;;3.30;;
34984;SDS011;21190;58.750;17.004;2023-07-24T08:10:42;5.82;;;2.85;;
34984;SDS011;21190;58.750;17.004;2023-07-24T08:13:09;6.75;;;3.70;;
34984;SDS011;21190;58.750;17.004;2023-07-24T08:15:37;5.88;;;2.95;;
34984;SDS011;21190;58.750;17.004;2023-07-24T08:18:04;5.78;;;3.13;;
34984;SDS011;21190;58.750;17.004;2023-07-24T08:20:36;6.05;;;2.42;;
34984;SDS011;21190;58.750;17.004;2023-07-24T08:23:03;5.75;;;2.65;;
34984;SDS011;21190;58.750;17.004;2023-07-24T08:25:30;5.78;;;2.70;;
34984;SDS011;21190;58.750;17.004;2023-07-24T08:27:57;5.30;;;2.42;;
34984;SDS011;21190;58.750;17.004;2023-07-24T08:30:27;6.82;;;2.70;;
34984;SDS011;21190;58.750;17.004;2023-07-24T08:32:55;3.83;;;2.38;;
34984;SDS011;21190;58.750;17.004;2023-07-24T08:35:23;8.48;;;2.30;;
34984;SDS011;21190;58.750;17.004;2023-07-24T08:37:50;6.07;;;2.30;;
34984;SDS011;21190;58.750;17.004;2023-07-24T08:40:17;2.30;;;1.90;;
34984;SDS011;21190;58.750;17.004;2023-07-24T08:42:44;4.90;;;2.03;;
34984;SDS011;21190;58.750;17.004;2023-07-24T08:45:12;4.03;;;2.15;;
34984;SDS011;21190;58.750;17.004;2023-07-24T08:47:42;3.20;;;2.10;;
34984;SDS011;21190;58.750;17.004;2023-07-24T08:50:11;4.32;;;2.38;;
34984;SDS011;21190;58.750;17.004;2023-07-24T08:52:38;3.95;;;2.08;;
34984;SDS011;21190;58.750;17.004;2023-07-24T08:55:06;3.40;;;2.40;;
34984;SDS011;21190;58.750;17.004;2023-07-24T08:57:33;5.97;;;2.15;;
34984;SDS011;21190;58.750;17.004;2023-07-24T09:00:01;3.03;;;2.03;;
34984;SDS011;21190;58.750;17.004;2023-07-24T09:02:32;5.35;;;2.50;;
34984;SDS011;21190;58.750;17.004;2023-07-24T09:04:59;6.25;;;2.80;;
34984;SDS011;21190;58.750;17.004;2023-07-24T09:07:27;4.50;;;2.10;;
34984;SDS011;21190;58.750;17.004;2023-07-24T09:09:53;3.05;;;1.88;;
34984;SDS011;21190;58.750;17.004;2023-07-24T09:12:21;3.08;;;1.88;;
34984;SDS011;21190;58.750;17.004;2023-07-24T09:15:00;2.75;;;1.85;;
34984;SDS011;21190;58.750;17.004;2023-07-24T09:17:32;3.67;;;2.15;;
34984;SDS011;21190;58.750;17.004;2023-07-24T09:20:00;4.18;;;2.00;;
34984;SDS011;21190;58.750;17.004;2023-07-24T09:22:28;2.10;;;1.30;;
34984;SDS011;21190;58.750;17.004;2023-07-24T09:24:56;3.15;;;1.58;;
34984;SDS011;21190;58.750;17.004;2023-07-24T09:27:27;2.33;;;1.42;;
34984;SDS011;21190;58.750;17.004;2023-07-24T09:29:57;2.90;;;1.88;;
34984;SDS011;21190;58.750;17.004;2023-07-24T09:32:25;5.32;;;2.00;;
34984;SDS011;21190;58.750;17.004;2023-07-24T09:34:53;5.93;;;2.00;;
34984;SDS011;21190;58.750;17.004;2023-07-24T09:37:27;3.22;;;1.80;;
34984;SDS011;21190;58.750;17.004;2023-07-24T09:39:59;1.88;;;1.40;;
34984;SDS011;21190;58.750;17.004;2023-07-24T09:42:33;4.78;;;1.92;;
34984;SDS011;21190;58.750;17.004;2023-07-24T09:45:13;4.03;;;2.17;;
34984;SDS011;21190;58.750;17.004;2023-07-24T09:47:40;4.20;;;2.40;;
34984;SDS011;21190;58.750;17.004;2023-07-24T09:50:10;6.18;;;2.17;;
34984;SDS011;21190;58.750;17.004;2023-07-24T09:52:37;4.03;;;2.10;;
34984;SDS011;21190;58.750;17.004;2023-07-24T09:57:45;4.15;;;1.92;;
34984;SDS011;21190;58.750;17.004;2023-07-24T10:00:14;7.97;;;2.80;;
34984;SDS011;21190;58.750;17.004;2023-07-24T10:02:42;7.00;;;2.00;;
34984;SDS011;21190;58.750;17.004;2023-07-24T10:05:11;3.72;;;2.53;;
34984;SDS011;21190;58.750;17.004;2023-07-24T10:07:38;2.63;;;1.80;;
34984;SDS011;21190;58.750;17.004;2023-07-24T10:10:05;2.67;;;2.00;;
34984;SDS011;21190;58.750;17.004;2023-07-24T10:12:34;3.97;;;2.08;;
34984;SDS011;21190;58.750;17.004;2023-07-24T10:15:02;3.30;;;1.98;;
34984;SDS011;21190;58.750;17.004;2023-07-24T10:17:35;4.93;;;2.33;;
34984;SDS011;21190;58.750;17.004;2023-07-24T10:20:07;8.15;;;2.20;;
34984;SDS011;21190;58.750;17.004;2023-07-24T10:22:35;5.22;;;2.55;;
34984;SDS011;21190;58.750;17.004;2023-07-24T10:25:08;4.60;;;2.28;;
34984;SDS011;21190;58.750;17.004;2023-07-24T10:27:41;5.15;;;2.40;;
34984;SDS011;21190;58.750;17.004;2023-07-24T10:30:10;3.35;;;2.20;;
34984;SDS011;21190;58.750;17.004;2023-07-24T10:33:09;4.80;;;2.15;;
34984;SDS011;21190;58.750;17.004;2023-07-24T10:35:38;3.25;;;2.00;;
34984;SDS011;21190;58.750;17.004;2023-07-24T10:38:06;3.13;;;2.03;;
34984;SDS011;21190;58.750;17.004;2023-07-24T10:40:34;5.88;;;2.30;;
34984;SDS011;21190;58.750;17.004;2023-07-24T10:43:04;4.88;;;2.33;;
34984;SDS011;21190;58.750;17.004;2023-07-24T10:45:39;4.05;;;2.25;;
34984;SDS011;21190;58.750;17.004;2023-07-24T10:48:09;3.90;;;2.40;;
34984;SDS011;21190;58.750;17.004;2023-07-24T10:50:38;3.67;;;2.00;;
34984;SDS011;21190;58.750;17.004;2023-07-24T10:53:08;10.57;;;3.63;;
34984;SDS011;21190;58.750;17.004;2023-07-24T10:55:45;3.55;;;2.03;;
34984;SDS011;21190;58.750;17.004;2023-07-24T10:58:14;3.90;;;1.77;;
34984;SDS011;21190;58.750;17.004;2023-07-24T11:00:41;3.65;;;2.30;;
34984;SDS011;21190;58.750;17.004;2023-07-24T11:03:12;2.55;;;1.80;;
34984;SDS011;21190;58.750;17.004;2023-07-24T11:05:40;2.72;;;1.73;;
34984;SDS011;21190;58.750;17.004;2023-07-24T11:08:12;2.13;;;1.65;;
34984;SDS011;21190;58.750;17.004;2023-07-24T11:10:46;3.60;;;2.40;;
34984;SDS011;21190;58.750;17.004;2023-07-24T11:13:20;5.13;;;1.90;;
34984;SDS011;21190;58.750;17.004;2023-07-24T11:15:49;3.63;;;1.90;;
34984;SDS011;21190;58.750;17.004;2023-07-24T11:18:17;3.80;;;1.80;;
34984;SDS011;21190;58.750;17.004;2023-07-24T11:20:47;4.82;;;2.00;;
34984;SDS011;21190;58.750;17.004;2023-07-24T11:23:19;3.63;;;1.88;;
34984;SDS011;21190;58.750;17.004;2023-07-24T11:25:46;3.85;;;2.00;;
34984;SDS011;21190;58.750;17.004;2023-07-24T11:28:16;3.53;;;1.90;;
34984;SDS011;21190;58.750;17.004;2023-07-24T11:30:43;7.50;;;2.08;;
34984;SDS011;21190;58.750;17.004;2023-07-24T11:33:10;4.00;;;2.20;;
34984;SDS011;21190;58.750;17.004;2023-07-24T11:35:43;3.90;;;1.80;;
34984;SDS011;21190;58.750;17.004;2023-07-24T11:38:10;3.00;;;1.92;;
34984;SDS011;21190;58.750;17.004;2023-07-24T11:40:38;3.63;;;2.10;;
34984;SDS011;21190;58.750;17.004;2023-07-24T11:43:16;4.15;;;1.90;;
34984;SDS011;21190;58.750;17.004;2023-07-24T11:45:45;5.05;;;1.83;;
34984;SDS011;21190;58.750;17.004;2023-07-24T11:48:19;6.53;;;1.40;;
34984;SDS011;21190;58.750;17.004;2023-07-24T11:50:48;3.05;;;1.13;;
34984;SDS011;21190;58.750;17.004;2023-07-24T11:53:20;0.68;;;0.63;;
34984;SDS011;21190;58.750;17.004;2023-07-24T11:56:00;2.88;;;1.20;;
34984;SDS011;21190;58.750;17.004;2023-07-24T11:58:29;1.35;;;0.85;;
34984;SDS011;21190;58.750;17.004;2023-07-24T12:00:58;1.67;;;0.98;;
34984;SDS011;21190;58.750;17.004;2023-07-24T12:03:25;1.02;;;0.70;;
34984;SDS011;21190;58.750;17.004;2023-07-24T12:05:54;2.65;;;1.20;;
34984;SDS011;21190;58.750;17.004;2023-07-24T12:08:29;3.05;;;1.00;;
34984;SDS011;21190;58.750;17.004;2023-07-24T12:11:01;1.05;;;0.77;;
34984;SDS011;21190;58.750;17.004;2023-07-24T12:13:28;1.90;;;1.10;;
34984;SDS011;21190;58.750;17.004;2023-07-24T12:15:55;2.00;;;0.80;;
34984;SDS011;21190;58.750;17.004;2023-07-24T12:18:22;0.70;;;0.60;;
34984;SDS011;21190;58.750;17.004;2023-07-24T12:20:49;3.80;;;0.90;;
34984;SDS011;21190;58.750;17.004;2023-07-24T12:23:16;2.22;;;1.00;;
34984;SDS011;21190;58.750;17.004;2023-07-24T12:25:43;1.10;;;0.88;;
34984;SDS011;21190;58.750;17.004;2023-07-24T12:28:10;1.63;;;1.00;;
34984;SDS011;21190;58.750;17.004;2023-07-24T12:30:37;2.33;;;1.23;;
34984;SDS011;21190;58.750;17.004;2023-07-24T12:33:04;3.47;;;1.02;;
34984;SDS011;21190;58.750;17.004;2023-07-24T12:35:31;3.38;;;1.15;;
34984;SDS011;21190;58.750;17.004;2023-07-24T12:37:59;4.43;;;1.40;;
34984;SDS011;21190;58.750;17.004;2023-07-24T12:40:26;3.03;;;1.40;;
34984;SDS011;21190;58.750;17.004;2023-07-24T12:42:52;1.73;;;1.30;;
34984;SDS011;21190;58.750;17.004;2023-07-24T12:45:19;2.20;;;1.52;;
34984;SDS011;21190;58.750;17.004;2023-07-24T12:47:46;2.00;;;1.40;;
34984;SDS011;21190;58.750;17.004;2023-07-24T12:50:13;1.85;;;1.30;;
34984;SDS011;21190;58.750;17.004;2023-07-24T12:52:40;3.67;;;1.60;;
34984;SDS011;21190;58.750;17.004;2023-07-24T12:55:08;2.78;;;1.52;;
34984;SDS011;21190;58.750;17.004;2023-07-24T12:57:35;2.53;;;1.50;;
34984;SDS011;21190;58.750;17.004;2023-07-24T13:00:02;2.30;;;1.25;;
34984;SDS011;21190;58.750;17.004;2023-07-24T13:02:31;2.45;;;1.70;;
34984;SDS011;21190;58.750;17.004;2023-07-24T13:04:58;2.10;;;1.30;;
34984;SDS011;21190;58.750;17.004;2023-07-24T13:07:25;2.67;;;1.33;;
34984;SDS011;21190;58.750;17.004;2023-07-24T13:09:52;2.92;;;1.17;;
34984;SDS011;21190;58.750;17.004;2023-07-24T13:12:20;4.38;;;1.08;;
34984;SDS011;21190;58.750;17.004;2023-07-24T13:14:47;0.80;;;0.73;;
34984;SDS011;21190;58.750;17.004;2023-07-24T13:17:14;1.38;;;1.00;;
34984;SDS011;21190;58.750;17.004;2023-07-24T13:19:41;1.58;;;0.98;;
34984;SDS011;21190;58.750;17.004;2023-07-24T13:22:07;1.20;;;0.95;;
34984;SDS011;21190;58.750;17.004;2023-07-24T13:24:34;1.90;;;1.02;;
34984;SDS011;21190;58.750;17.004;2023-07-24T13:27:01;2.88;;;1.33;;
34984;SDS011;21190;58.750;17.004;2023-07-24T13:29:29;1.15;;;0.90;;
34984;SDS011;21190;58.750;17.004;2023-07-24T13:31:57;1.25;;;0.95;;
34984;SDS011;21190;58.750;17.004;2023-07-24T13:34:24;1.10;;;0.80;;
34984;SDS011;21190;58.750;17.004;2023-07-24T13:36:51;2.20;;;0.68;;
34984;SDS011;21190;58.750;17.004;2023-07-24T13:39:19;1.08;;;0.98;;
34984;SDS011;21190;58.750;17.004;2023-07-24T13:41:46;2.50;;;1.35;;
34984;SDS011;21190;58.750;17.004;2023-07-24T13:44:13;1.15;;;0.90;;
34984;SDS011;21190;58.750;17.004;2023-07-24T13:46:40;3.33;;;1.17;;
34984;SDS011;21190;58.750;17.004;2023-07-24T13:49:07;1.58;;;0.68;;
34984;SDS011;21190;58.750;17.004;2023-07-24T13:51:34;2.60;;;0.73;;
34984;SDS011;21190;58.750;17.004;2023-07-24T13:54:01;2.95;;;0.70;;
34984;SDS011;21190;58.750;17.004;2023-07-24T13:56:29;2.25;;;1.00;;
34984;SDS011;21190;58.750;17.004;2023-07-24T13:59:00;2.28;;;0.90;;
34984;SDS011;21190;58.750;17.004;2023-07-24T14:01:27;2.92;;;0.82;;
34984;SDS011;21190;58.750;17.004;2023-07-24T14:03:55;1.83;;;0.88;;
34984;SDS011;21190;58.750;17.004;2023-07-24T14:06:22;2.40;;;0.70;;
34984;SDS011;21190;58.750;17.004;2023-07-24T14:08:49;5.45;;;1.40;;
34984;SDS011;21190;58.750;17.004;2023-07-24T14:11:16;1.15;;;0.82;;
34984;SDS011;21190;58.750;17.004;2023-07-24T14:13:43;2.28;;;1.15;;
34984;SDS011;21190;58.750;17.004;2023-07-24T14:16:11;2.42;;;1.60;;
34984;SDS011;21190;58.750;17.004;2023-07-24T14:18:38;2.20;;;1.20;;
34984;SDS011;21190;58.750;17.004;2023-07-24T14:21:05;2.10;;;0.90;;
34984;SDS011;21190;58.750;17.004;2023-07-24T14:23:32;1.02;;;0.57;;
34984;SDS011;21190;58.750;17.004;2023-07-24T14:25:59;5.28;;;1.80;;
34984;SDS011;21190;58.750;17.004;2023-07-24T14:28:26;4.72;;;1.95;;
34984;SDS011;21190;58.750;17.004;2023-07-24T14:30:53;2.05;;;0.93;;
34984;SDS011;21190;58.750;17.004;2023-07-24T14:33:20;4.30;;;1.40;;
34984;SDS011;21190;58.750;17.004;2023-07-24T14:35:48;2.60;;;1.30;;
34984;SDS011;21190;58.750;17.004;2023-07-24T14:38:16;3.42;;;1.30;;
34984;SDS011;21190;58.750;17.004;2023-07-24T14:40:43;1.80;;;1.20;;
34984;SDS011;21190;58.750;17.004;2023-07-24T14:43:10;1.92;;;1.00;;